sensor_id;sensor_type;location;lat;lon;timestamp;pressure;altitude;pressure_sealevel;temperature
28803;BMP280;15949;55.656;37.422;2022-08-20T00:00:46;100484.13;;;17.43
28803;BMP280;15949;55.656;37.422;2022-08-20T00:06:09;100485.03;;;17.22
28803;BMP280;15949;55.656;37.422;2022-08-20T00:11:18;100488.19;;;17.21
28803;BMP280;15949;55.656;37.422;2022-08-20T00:16:27;100488.63;;;17.10
28803;BMP280;15949;55.656;37.422;2022-08-20T00:21:34;100493.41;;;17.06
28803;BMP280;15949;55.656;37.422;2022-08-20T00:26:40;100504.19;;;17.06
28803;BMP280;15949;55.656;37.422;2022-08-20T00:31:46;100494.91;;;17.07
28803;BMP280;15949;55.656;37.422;2022-08-20T00:36:51;100498.19;;;17.02
28803;BMP280;15949;55.656;37.422;2022-08-20T00:41:57;100498.66;;;16.91
28803;BMP280;15949;55.656;37.422;2022-08-20T00:47:03;100503.53;;;16.83
28803;BMP280;15949;55.656;37.422;2022-08-20T00:52:16;100496.94;;;16.75
28803;BMP280;15949;55.656;37.422;2022-08-20T00:57:42;100489.47;;;16.70
28803;BMP280;15949;55.656;37.422;2022-08-20T01:02:49;100497.25;;;16.68
28803;BMP280;15949;55.656;37.422;2022-08-20T01:07:55;100497.25;;;16.68
28803;BMP280;15949;55.656;37.422;2022-08-20T01:13:08;100493.00;;;16.58
28803;BMP280;15949;55.656;37.422;2022-08-20T01:18:21;100496.91;;;16.57
28803;BMP280;15949;55.656;37.422;2022-08-20T01:23:53;100494.06;;;16.51
28803;BMP280;15949;55.656;37.422;2022-08-20T01:29:05;100495.53;;;16.52
28803;BMP280;15949;55.656;37.422;2022-08-20T01:34:14;100503.44;;;16.47
28803;BMP280;15949;55.656;37.422;2022-08-20T01:39:32;100508.06;;;16.37
28803;BMP280;15949;55.656;37.422;2022-08-20T01:44:41;100509.38;;;16.32
28803;BMP280;15949;55.656;37.422;2022-08-20T01:49:50;100512.88;;;16.20
28803;BMP280;15949;55.656;37.422;2022-08-20T01:54:56;100500.63;;;16.19
28803;BMP280;15949;55.656;37.422;2022-08-20T02:00:06;100519.13;;;16.17
28803;BMP280;15949;55.656;37.422;2022-08-20T02:05:13;100510.41;;;16.04
28803;BMP280;15949;55.656;37.422;2022-08-20T02:10:18;100507.91;;;16.09
28803;BMP280;15949;55.656;37.422;2022-08-20T02:15:24;100515.66;;;16.07
28803;BMP280;15949;55.656;37.422;2022-08-20T02:20:30;100518.41;;;15.95
28803;BMP280;15949;55.656;37.422;2022-08-20T02:25:38;100511.91;;;16.05
28803;BMP280;15949;55.656;37.422;2022-08-20T02:30:48;100525.66;;;16.07
28803;BMP280;15949;55.656;37.422;2022-08-20T02:35:56;100521.72;;;15.99
28803;BMP280;15949;55.656;37.422;2022-08-20T02:41:02;100524.91;;;16.06
28803;BMP280;15949;55.656;37.422;2022-08-20T02:46:07;100537.84;;;15.99
28803;BMP280;15949;55.656;37.422;2022-08-20T02:51:13;100538.75;;;15.96
28803;BMP280;15949;55.656;37.422;2022-08-20T02:56:19;100540.16;;;15.87
28803;BMP280;15949;55.656;37.422;2022-08-20T03:01:24;100546.19;;;15.91
28803;BMP280;15949;55.656;37.422;2022-08-20T03:06:30;100538.88;;;15.92
28803;BMP280;15949;55.656;37.422;2022-08-20T03:11:36;100539.28;;;15.90
28803;BMP280;15949;55.656;37.422;2022-08-20T03:16:43;100541.75;;;15.98
28803;BMP280;15949;55.656;37.422;2022-08-20T03:21:49;100542.22;;;15.83
28803;BMP280;15949;55.656;37.422;2022-08-20T03:26:55;100542.94;;;15.97
28803;BMP280;15949;55.656;37.422;2022-08-20T03:32:00;100537.72;;;16.02
28803;BMP280;15949;55.656;37.422;2022-08-20T03:37:06;100531.78;;;16.07
28803;BMP280;15949;55.656;37.422;2022-08-20T03:42:11;100540.50;;;16.21
28803;BMP280;15949;55.656;37.422;2022-08-20T03:47:18;100541.13;;;16.25
28803;BMP280;15949;55.656;37.422;2022-08-20T03:52:24;100539.16;;;16.16
28803;BMP280;15949;55.656;37.422;2022-08-20T03:57:30;100536.97;;;16.24
28803;BMP280;15949;55.656;37.422;2022-08-20T04:02:35;100551.53;;;16.13
28803;BMP280;15949;55.656;37.422;2022-08-20T04:07:41;100551.47;;;16.26
28803;BMP280;15949;55.656;37.422;2022-08-20T04:12:47;100556.81;;;16.57
28803;BMP280;15949;55.656;37.422;2022-08-20T04:17:52;100545.38;;;16.75
28803;BMP280;15949;55.656;37.422;2022-08-20T04:22:58;100556.38;;;16.99
28803;BMP280;15949;55.656;37.422;2022-08-20T04:28:07;100551.31;;;17.20
28803;BMP280;15949;55.656;37.422;2022-08-20T04:33:12;100547.88;;;17.28
28803;BMP280;15949;55.656;37.422;2022-08-20T04:38:20;100547.31;;;17.42
28803;BMP280;15949;55.656;37.422;2022-08-20T04:43:33;100553.56;;;17.67
28803;BMP280;15949;55.656;37.422;2022-08-20T04:48:39;100549.94;;;17.88
28803;BMP280;15949;55.656;37.422;2022-08-20T04:53:45;100551.44;;;17.89
28803;BMP280;15949;55.656;37.422;2022-08-20T04:58:53;100549.94;;;17.98
28803;BMP280;15949;55.656;37.422;2022-08-20T05:03:59;100550.53;;;17.92
28803;BMP280;15949;55.656;37.422;2022-08-20T05:09:04;100550.22;;;17.90
28803;BMP280;15949;55.656;37.422;2022-08-20T05:14:10;100545.75;;;17.97
28803;BMP280;15949;55.656;37.422;2022-08-20T05:19:16;100544.34;;;18.10
28803;BMP280;15949;55.656;37.422;2022-08-20T05:24:22;100557.53;;;18.08
28803;BMP280;15949;55.656;37.422;2022-08-20T05:29:27;100556.78;;;18.08
28803;BMP280;15949;55.656;37.422;2022-08-20T05:34:33;100561.16;;;17.96
28803;BMP280;15949;55.656;37.422;2022-08-20T05:39:38;100564.59;;;17.87
28803;BMP280;15949;55.656;37.422;2022-08-20T05:44:44;100567.03;;;17.85
28803;BMP280;15949;55.656;37.422;2022-08-20T05:49:51;100573.00;;;17.89
28803;BMP280;15949;55.656;37.422;2022-08-20T05:54:56;100573.31;;;17.82
28803;BMP280;15949;55.656;37.422;2022-08-20T06:00:05;100567.16;;;17.82
28803;BMP280;15949;55.656;37.422;2022-08-20T06:05:11;100567.16;;;17.82
28803;BMP280;15949;55.656;37.422;2022-08-20T06:10:17;100570.59;;;17.91
28803;BMP280;15949;55.656;37.422;2022-08-20T06:15:23;100570.59;;;18.01
28803;BMP280;15949;55.656;37.422;2022-08-20T06:20:28;100561.84;;;18.15
28803;BMP280;15949;55.656;37.422;2022-08-20T06:25:34;100576.38;;;18.17
28803;BMP280;15949;55.656;37.422;2022-08-20T06:30:40;100572.00;;;18.29
28803;BMP280;15949;55.656;37.422;2022-08-20T06:35:46;100565.78;;;18.80
28803;BMP280;15949;55.656;37.422;2022-08-20T06:40:52;100564.72;;;19.02
28803;BMP280;15949;55.656;37.422;2022-08-20T06:45:57;100557.50;;;19.08
28803;BMP280;15949;55.656;37.422;2022-08-20T06:51:03;100551.19;;;19.11
28803;BMP280;15949;55.656;37.422;2022-08-20T06:56:10;100547.22;;;18.97
28803;BMP280;15949;55.656;37.422;2022-08-20T07:01:17;100540.00;;;18.79
28803;BMP280;15949;55.656;37.422;2022-08-20T07:06:25;100536.63;;;18.84
28803;BMP280;15949;55.656;37.422;2022-08-20T07:11:31;100537.16;;;18.50
28803;BMP280;15949;55.656;37.422;2022-08-20T07:16:37;100531.44;;;18.57
28803;BMP280;15949;55.656;37.422;2022-08-20T07:21:42;100530.22;;;18.82
28803;BMP280;15949;55.656;37.422;2022-08-20T07:26:48;100525.56;;;18.82
28803;BMP280;15949;55.656;37.422;2022-08-20T07:31:56;100517.69;;;18.69
28803;BMP280;15949;55.656;37.422;2022-08-20T07:37:20;100526.84;;;18.72
28803;BMP280;15949;55.656;37.422;2022-08-20T07:42:28;100528.44;;;18.55
28803;BMP280;15949;55.656;37.422;2022-08-20T07:47:33;100550.69;;;18.40
28803;BMP280;15949;55.656;37.422;2022-08-20T07:52:40;100550.69;;;18.40
28803;BMP280;15949;55.656;37.422;2022-08-20T07:57:48;100546.41;;;18.58
28803;BMP280;15949;55.656;37.422;2022-08-20T08:02:54;100550.25;;;19.14
28803;BMP280;15949;55.656;37.422;2022-08-20T08:08:01;100552.75;;;19.41
28803;BMP280;15949;55.656;37.422;2022-08-20T08:13:09;100562.34;;;19.42
28803;BMP280;15949;55.656;37.422;2022-08-20T08:18:20;100567.44;;;19.40
28803;BMP280;15949;55.656;37.422;2022-08-20T08:23:28;100573.03;;;19.37
28803;BMP280;15949;55.656;37.422;2022-08-20T08:28:34;100577.03;;;19.27
28803;BMP280;15949;55.656;37.422;2022-08-20T08:33:41;100573.47;;;18.97
28803;BMP280;15949;55.656;37.422;2022-08-20T08:38:47;100577.06;;;18.79
28803;BMP280;15949;55.656;37.422;2022-08-20T08:43:58;100574.03;;;18.53
28803;BMP280;15949;55.656;37.422;2022-08-20T08:49:05;100574.03;;;18.53
28803;BMP280;15949;55.656;37.422;2022-08-20T08:54:17;100574.75;;;18.53
28803;BMP280;15949;55.656;37.422;2022-08-20T08:59:27;100569.00;;;18.60
28803;BMP280;15949;55.656;37.422;2022-08-20T09:04:39;100578.75;;;18.67
28803;BMP280;15949;55.656;37.422;2022-08-20T09:09:45;100585.31;;;18.75
28803;BMP280;15949;55.656;37.422;2022-08-20T09:14:51;100579.41;;;18.53
28803;BMP280;15949;55.656;37.422;2022-08-20T09:19:56;100577.34;;;18.48
28803;BMP280;15949;55.656;37.422;2022-08-20T09:25:02;100575.63;;;18.17
28803;BMP280;15949;55.656;37.422;2022-08-20T09:30:09;100574.78;;;18.02
28803;BMP280;15949;55.656;37.422;2022-08-20T09:35:15;100569.13;;;17.63
28803;BMP280;15949;55.656;37.422;2022-08-20T09:40:20;100567.06;;;17.30
28803;BMP280;15949;55.656;37.422;2022-08-20T09:45:26;100576.78;;;17.37
28803;BMP280;15949;55.656;37.422;2022-08-20T09:50:33;100575.13;;;17.30
28803;BMP280;15949;55.656;37.422;2022-08-20T09:55:42;100561.47;;;17.15
28803;BMP280;15949;55.656;37.422;2022-08-20T10:00:48;100547.25;;;17.06
28803;BMP280;15949;55.656;37.422;2022-08-20T10:05:54;100530.47;;;16.92
28803;BMP280;15949;55.656;37.422;2022-08-20T10:10:59;100522.09;;;16.81
28803;BMP280;15949;55.656;37.422;2022-08-20T10:16:05;100546.31;;;16.81
28803;BMP280;15949;55.656;37.422;2022-08-20T10:21:11;100541.81;;;16.87
28803;BMP280;15949;55.656;37.422;2022-08-20T10:26:16;100539.59;;;16.86
28803;BMP280;15949;55.656;37.422;2022-08-20T10:31:22;100549.88;;;16.87
28803;BMP280;15949;55.656;37.422;2022-08-20T10:36:27;100557.69;;;16.95
28803;BMP280;15949;55.656;37.422;2022-08-20T10:41:33;100553.53;;;17.03
28803;BMP280;15949;55.656;37.422;2022-08-20T10:46:39;100554.75;;;17.11
28803;BMP280;15949;55.656;37.422;2022-08-20T10:51:44;100555.50;;;17.11
28803;BMP280;15949;55.656;37.422;2022-08-20T10:56:50;100548.16;;;17.03
28803;BMP280;15949;55.656;37.422;2022-08-20T11:01:56;100554.44;;;17.00
28803;BMP280;15949;55.656;37.422;2022-08-20T11:12:19;100528.13;;;17.04
28803;BMP280;15949;55.656;37.422;2022-08-20T11:17:30;100528.88;;;17.32
28803;BMP280;15949;55.656;37.422;2022-08-20T11:22:36;100517.53;;;17.55
28803;BMP280;15949;55.656;37.422;2022-08-20T11:27:45;100514.56;;;17.96
28803;BMP280;15949;55.656;37.422;2022-08-20T11:32:51;100502.31;;;18.28
28803;BMP280;15949;55.656;37.422;2022-08-20T11:37:57;100506.34;;;18.65
28803;BMP280;15949;55.656;37.422;2022-08-20T11:43:03;100484.25;;;18.91
28803;BMP280;15949;55.656;37.422;2022-08-20T11:48:09;100481.16;;;19.07
28803;BMP280;15949;55.656;37.422;2022-08-20T11:53:14;100466.09;;;19.30
28803;BMP280;15949;55.656;37.422;2022-08-20T11:58:20;100465.31;;;19.30
28803;BMP280;15949;55.656;37.422;2022-08-20T12:03:26;100467.00;;;19.27
28803;BMP280;15949;55.656;37.422;2022-08-20T12:08:32;100462.88;;;19.17
28803;BMP280;15949;55.656;37.422;2022-08-20T12:13:37;100458.41;;;19.14
28803;BMP280;15949;55.656;37.422;2022-08-20T12:18:44;100454.50;;;19.30
28803;BMP280;15949;55.656;37.422;2022-08-20T12:23:50;100441.69;;;19.39
28803;BMP280;15949;55.656;37.422;2022-08-20T12:28:55;100441.53;;;19.63
28803;BMP280;15949;55.656;37.422;2022-08-20T12:34:02;100438.03;;;19.92
28803;BMP280;15949;55.656;37.422;2022-08-20T12:39:07;100432.25;;;20.00
28803;BMP280;15949;55.656;37.422;2022-08-20T12:44:13;100419.38;;;19.94
28803;BMP280;15949;55.656;37.422;2022-08-20T12:49:19;100418.63;;;19.94
28803;BMP280;15949;55.656;37.422;2022-08-20T12:54:24;100420.28;;;19.71
28803;BMP280;15949;55.656;37.422;2022-08-20T12:59:30;100423.56;;;19.60
28803;BMP280;15949;55.656;37.422;2022-08-20T13:04:36;100417.97;;;19.49
28803;BMP280;15949;55.656;37.422;2022-08-20T13:09:42;100400.59;;;19.35
28803;BMP280;15949;55.656;37.422;2022-08-20T13:14:48;100399.72;;;19.44
28803;BMP280;15949;55.656;37.422;2022-08-20T13:19:53;100394.69;;;19.52
28803;BMP280;15949;55.656;37.422;2022-08-20T13:24:59;100391.63;;;19.59
28803;BMP280;15949;55.656;37.422;2022-08-20T13:30:06;100398.59;;;19.65
28803;BMP280;15949;55.656;37.422;2022-08-20T13:35:13;100387.59;;;19.69
28803;BMP280;15949;55.656;37.422;2022-08-20T13:40:19;100394.84;;;19.78
28803;BMP280;15949;55.656;37.422;2022-08-20T13:45:24;100379.94;;;19.67
28803;BMP280;15949;55.656;37.422;2022-08-20T13:50:30;100380.41;;;19.66
28803;BMP280;15949;55.656;37.422;2022-08-20T13:55:35;100370.25;;;19.61
28803;BMP280;15949;55.656;37.422;2022-08-20T14:00:41;100365.78;;;19.58
28803;BMP280;15949;55.656;37.422;2022-08-20T14:05:47;100361.34;;;19.55
28803;BMP280;15949;55.656;37.422;2022-08-20T14:10:53;100355.09;;;19.49
28803;BMP280;15949;55.656;37.422;2022-08-20T14:15:58;100352.78;;;19.41
28803;BMP280;15949;55.656;37.422;2022-08-20T14:21:04;100340.88;;;19.33
28803;BMP280;15949;55.656;37.422;2022-08-20T14:26:10;100347.75;;;19.34
28803;BMP280;15949;55.656;37.422;2022-08-20T14:31:15;100353.34;;;19.45
28803;BMP280;15949;55.656;37.422;2022-08-20T14:36:21;100348.19;;;19.48
28803;BMP280;15949;55.656;37.422;2022-08-20T14:41:26;100349.97;;;19.51
28803;BMP280;15949;55.656;37.422;2022-08-20T14:46:32;100332.53;;;19.52
28803;BMP280;15949;55.656;37.422;2022-08-20T14:51:37;100324.81;;;19.44
28803;BMP280;15949;55.656;37.422;2022-08-20T14:56:43;100326.22;;;19.55
28803;BMP280;15949;55.656;37.422;2022-08-20T15:01:49;100334.88;;;19.59
28803;BMP280;15949;55.656;37.422;2022-08-20T15:06:54;100321.06;;;19.57
28803;BMP280;15949;55.656;37.422;2022-08-20T15:12:01;100319.78;;;19.52
28803;BMP280;15949;55.656;37.422;2022-08-20T15:17:09;100323.50;;;19.55
28803;BMP280;15949;55.656;37.422;2022-08-20T15:22:16;100310.91;;;19.52
28803;BMP280;15949;55.656;37.422;2022-08-20T15:27:23;100304.28;;;19.53
28803;BMP280;15949;55.656;37.422;2022-08-20T15:32:29;100310.66;;;19.50
28803;BMP280;15949;55.656;37.422;2022-08-20T15:37:39;100299.28;;;19.45
28803;BMP280;15949;55.656;37.422;2022-08-20T15:42:46;100303.75;;;19.49
28803;BMP280;15949;55.656;37.422;2022-08-20T15:48:02;100306.53;;;19.54
28803;BMP280;15949;55.656;37.422;2022-08-20T15:53:16;100311.94;;;19.54
28803;BMP280;15949;55.656;37.422;2022-08-20T15:58:35;100312.69;;;19.55
28803;BMP280;15949;55.656;37.422;2022-08-20T16:09:17;100313.63;;;19.52
28803;BMP280;15949;55.656;37.422;2022-08-20T16:14:34;100315.97;;;19.44
28803;BMP280;15949;55.656;37.422;2022-08-20T16:25:12;100327.09;;;19.31
28803;BMP280;15949;55.656;37.422;2022-08-20T16:30:42;100311.91;;;19.19
28803;BMP280;15949;55.656;37.422;2022-08-20T16:41:04;100326.94;;;18.90
28803;BMP280;15949;55.656;37.422;2022-08-20T16:46:17;100323.38;;;18.84
28803;BMP280;15949;55.656;37.422;2022-08-20T16:51:35;100328.72;;;18.93
28803;BMP280;15949;55.656;37.422;2022-08-20T16:56:47;100347.59;;;18.93
28803;BMP280;15949;55.656;37.422;2022-08-20T17:02:05;100334.56;;;18.92
28803;BMP280;15949;55.656;37.422;2022-08-20T17:07:11;100344.06;;;18.87
28803;BMP280;15949;55.656;37.422;2022-08-20T17:12:23;100338.66;;;18.87
28803;BMP280;15949;55.656;37.422;2022-08-20T17:17:32;100346.47;;;18.85
28803;BMP280;15949;55.656;37.422;2022-08-20T17:22:46;100344.06;;;18.87
28803;BMP280;15949;55.656;37.422;2022-08-20T17:27:52;100342.50;;;18.96
28803;BMP280;15949;55.656;37.422;2022-08-20T17:33:00;100342.25;;;18.84
28803;BMP280;15949;55.656;37.422;2022-08-20T17:38:06;100344.97;;;18.84
28803;BMP280;15949;55.656;37.422;2022-08-20T17:43:25;100345.25;;;18.86
28803;BMP280;15949;55.656;37.422;2022-08-20T17:48:35;100344.44;;;18.95
28803;BMP280;15949;55.656;37.422;2022-08-20T17:53:48;100341.81;;;19.01
28803;BMP280;15949;55.656;37.422;2022-08-20T17:59:01;100337.34;;;18.98
28803;BMP280;15949;55.656;37.422;2022-08-20T18:04:09;100341.44;;;18.93
28803;BMP280;15949;55.656;37.422;2022-08-20T18:09:23;100346.94;;;18.99
28803;BMP280;15949;55.656;37.422;2022-08-20T18:14:51;100351.50;;;18.92
28803;BMP280;15949;55.656;37.422;2022-08-20T18:30:23;100339.78;;;18.81
28803;BMP280;15949;55.656;37.422;2022-08-20T18:35:41;100345.91;;;18.81
28803;BMP280;15949;55.656;37.422;2022-08-20T18:40:47;100344.59;;;18.77
28803;BMP280;15949;55.656;37.422;2022-08-20T18:45:52;100339.75;;;18.66
28803;BMP280;15949;55.656;37.422;2022-08-20T18:51:02;100347.00;;;18.60
28803;BMP280;15949;55.656;37.422;2022-08-20T18:56:13;100344.31;;;18.60
28803;BMP280;15949;55.656;37.422;2022-08-20T19:01:19;100345.53;;;18.59
28803;BMP280;15949;55.656;37.422;2022-08-20T19:06:50;100347.34;;;18.53
28803;BMP280;15949;55.656;37.422;2022-08-20T19:23:11;100347.19;;;18.32
28803;BMP280;15949;55.656;37.422;2022-08-20T19:33:29;100348.75;;;18.24
28803;BMP280;15949;55.656;37.422;2022-08-20T19:38:42;100351.97;;;18.13
28803;BMP280;15949;55.656;37.422;2022-08-20T19:43:48;100348.88;;;18.06
28803;BMP280;15949;55.656;37.422;2022-08-20T19:54:23;100341.13;;;17.99
28803;BMP280;15949;55.656;37.422;2022-08-20T19:59:29;100345.47;;;17.96
28803;BMP280;15949;55.656;37.422;2022-08-20T20:04:38;100346.75;;;17.86
28803;BMP280;15949;55.656;37.422;2022-08-20T20:09:44;100345.09;;;17.88
28803;BMP280;15949;55.656;37.422;2022-08-20T20:14:53;100355.88;;;17.88
28803;BMP280;15949;55.656;37.422;2022-08-20T20:20:27;100351.13;;;17.74
28803;BMP280;15949;55.656;37.422;2022-08-20T20:30:39;100356.06;;;17.76
28803;BMP280;15949;55.656;37.422;2022-08-20T20:35:45;100352.50;;;17.70
28803;BMP280;15949;55.656;37.422;2022-08-20T20:40:54;100355.38;;;17.66
28803;BMP280;15949;55.656;37.422;2022-08-20T20:46:20;100349.41;;;17.62
28803;BMP280;15949;55.656;37.422;2022-08-20T20:51:30;100346.25;;;17.63
28803;BMP280;15949;55.656;37.422;2022-08-20T20:56:39;100341.28;;;17.71
28803;BMP280;15949;55.656;37.422;2022-08-20T21:01:45;100345.50;;;17.63
28803;BMP280;15949;55.656;37.422;2022-08-20T21:06:52;100343.66;;;17.69
28803;BMP280;15949;55.656;37.422;2022-08-20T21:11:58;100338.28;;;17.69
28803;BMP280;15949;55.656;37.422;2022-08-20T21:17:07;100348.78;;;17.67
28803;BMP280;15949;55.656;37.422;2022-08-20T21:22:13;100352.69;;;17.66
28803;BMP280;15949;55.656;37.422;2022-08-20T21:27:22;100349.41;;;17.62
28803;BMP280;15949;55.656;37.422;2022-08-20T21:32:28;100341.09;;;17.41
28803;BMP280;15949;55.656;37.422;2022-08-20T21:37:34;100355.47;;;17.29
28803;BMP280;15949;55.656;37.422;2022-08-20T21:42:41;100339.19;;;17.24
28803;BMP280;15949;55.656;37.422;2022-08-20T21:47:47;100334.53;;;17.24
28803;BMP280;15949;55.656;37.422;2022-08-20T21:52:52;100340.22;;;17.26
28803;BMP280;15949;55.656;37.422;2022-08-20T21:57:58;100325.72;;;17.24
28803;BMP280;15949;55.656;37.422;2022-08-20T22:03:04;100336.47;;;17.33
28803;BMP280;15949;55.656;37.422;2022-08-20T22:08:10;100337.22;;;17.33
28803;BMP280;15949;55.656;37.422;2022-08-20T22:13:16;100331.25;;;17.29
28803;BMP280;15949;55.656;37.422;2022-08-20T22:18:21;100339.31;;;17.29
28803;BMP280;15949;55.656;37.422;2022-08-20T22:23:27;100336.34;;;17.27
28803;BMP280;15949;55.656;37.422;2022-08-20T22:28:33;100336.38;;;17.09
28803;BMP280;15949;55.656;37.422;2022-08-20T22:33:39;100339.09;;;17.00
28803;BMP280;15949;55.656;37.422;2022-08-20T22:38:45;100323.81;;;16.97
28803;BMP280;15949;55.656;37.422;2022-08-20T22:43:51;100328.63;;;17.02
28803;BMP280;15949;55.656;37.422;2022-08-20T22:48:57;100333.25;;;16.92
28803;BMP280;15949;55.656;37.422;2022-08-20T22:54:06;100323.22;;;16.92
28803;BMP280;15949;55.656;37.422;2022-08-20T22:59:12;100313.38;;;16.89
28803;BMP280;15949;55.656;37.422;2022-08-20T23:04:24;100319.69;;;16.86
28803;BMP280;15949;55.656;37.422;2022-08-20T23:09:30;100329.22;;;16.78
28803;BMP280;15949;55.656;37.422;2022-08-20T23:14:36;100312.78;;;16.85
28803;BMP280;15949;55.656;37.422;2022-08-20T23:19:43;100319.66;;;16.77
28803;BMP280;15949;55.656;37.422;2022-08-20T23:24:49;100325.94;;;16.74
28803;BMP280;15949;55.656;37.422;2022-08-20T23:29:54;100324.16;;;16.71
28803;BMP280;15949;55.656;37.422;2022-08-20T23:35:00;100315.81;;;16.69
28803;BMP280;15949;55.656;37.422;2022-08-20T23:40:07;100320.28;;;16.72
28803;BMP280;15949;55.656;37.422;2022-08-20T23:45:13;100321.75;;;16.73
28803;BMP280;15949;55.656;37.422;2022-08-20T23:50:23;100330.72;;;16.61
28803;BMP280;15949;55.656;37.422;2022-08-20T23:55:29;100316.06;;;16.62
